Time;durP1;ratioP1;P1;durP2;ratioP2;P2;SDS_P1;SDS_P2;PMS_P1;PMS_P2;Temp;Humidity;BMP_temperature;BMP_pressure;BME280_temperature;BME280_humidity;BME280_pressure;Samples;Min_cycle;Max_cycle;Signal;HPM_P1;HPM_P2
2022/04/23 00:00:50;;;;;;;;;;;12.00;99.90;;;;;;5070354;28;19911;-64
2022/04/23 00:03:16;;;;;;;;;;;12.00;99.90;;;;;;5071134;28;19935;-61
2022/04/23 00:05:41;;;;;;;;;;;12.00;99.90;;;;;;5070437;28;19904;-62
2022/04/23 00:08:08;;;;;;;;;;;11.80;99.90;;;;;;5071198;28;19912;-62
2022/04/23 00:10:34;;;;;;;;;;;11.80;99.90;;;;;;5070322;28;19998;-62
2022/04/23 00:12:59;;;;;;;;;;;11.70;99.90;;;;;;5053068;28;19918;-63
2022/04/23 00:15:25;;;;;;;;;;;11.60;99.90;;;;;;5052909;28;20398;-64
2022/04/23 00:17:51;;;;;;;;;;;11.60;99.90;;;;;;5073389;28;19914;-62
2022/04/23 00:20:18;;;;;;;;;;;11.50;99.90;;;;;;5071341;28;19908;-62
2022/04/23 00:22:44;;;;;;;;;;;11.50;99.90;;;;;;5075362;28;19919;-62
2022/04/23 00:25:09;;;;;;;;;;;11.40;99.90;;;;;;5075498;28;20427;-62
2022/04/23 00:27:35;;;;;;;;;;;11.50;99.90;;;;;;5075071;28;20096;-59
2022/04/23 00:30:00;;;;;;;;;;;11.40;99.90;;;;;;5080071;28;19908;-59
2022/04/23 00:32:26;;;;;;;;;;;11.50;99.90;;;;;;5078688;28;19908;-59
2022/04/23 00:34:51;;;;;;;;;;;11.50;99.90;;;;;;5079022;28;19908;-59
2022/04/23 00:37:17;;;;;;;;;;;11.50;99.90;;;;;;5076590;28;19912;-59
2022/04/23 00:39:42;;;;;;;;;;;11.50;99.90;;;;;;5074783;28;19912;-59
2022/04/23 00:42:11;;;;;;;;;;;11.50;99.90;;;;;;5073961;28;19909;-59
2022/04/23 00:44:38;;;;;;;;;;;11.60;99.90;;;;;;5075127;28;19904;-56
2022/04/23 00:47:04;;;;;;;;;;;11.60;99.90;;;;;;5072220;28;20057;-59
2022/04/23 00:49:30;;;;;;;;;;;11.60;99.90;;;;;;5074812;28;19948;-59
2022/04/23 00:51:55;;;;;;;;;;;11.60;99.90;;;;;;5073950;28;19993;-59
2022/04/23 00:54:22;;;;;;;;;;;11.50;99.90;;;;;;5056731;28;20271;-59
2022/04/23 00:56:47;;;;;;;;;;;11.50;99.90;;;;;;5073623;28;20046;-59
2022/04/23 00:59:13;;;;;;;;;;;11.50;99.90;;;;;;5073447;28;19960;-56
2022/04/23 01:01:43;;;;;;;;;;;11.50;99.90;;;;;;5054575;28;19916;-58
2022/04/23 01:04:09;;;;;;;;;;;11.50;99.90;;;;;;5071245;28;19908;-55
2022/04/23 01:06:35;;;;;;;;;;;11.50;99.90;;;;;;5073966;28;19904;-55
2022/04/23 01:09:01;;;;;;;;;;;11.40;99.90;;;;;;5073533;28;19912;-57
2022/04/23 01:11:27;;;;;;;;;;;11.40;99.90;;;;;;5073515;28;20259;-57
2022/04/23 01:13:52;;;;;;;;;;;11.40;99.90;;;;;;5073421;28;19998;-57
2022/04/23 01:16:19;;;;;;;;;;;11.30;99.90;;;;;;5072958;28;19985;-56
2022/04/23 01:18:44;;;;;;;;;;;11.30;99.90;;;;;;5073703;28;19908;-57
2022/04/23 01:21:10;;;;;;;;;;;11.30;99.90;;;;;;5075334;28;20502;-54
2022/04/23 01:23:37;;;;;;;;;;;11.30;99.90;;;;;;5076945;28;19954;-55
2022/04/23 01:26:04;;;;;;;;;;;11.30;99.90;;;;;;5055042;28;19912;-55
2022/04/23 01:28:30;;;;;;;;;;;11.30;99.90;;;;;;5073040;28;19916;-55
2022/04/23 01:30:59;;;;;;;;;;;11.30;99.90;;;;;;5071421;28;19991;-54
2022/04/23 01:33:25;;;;;;;;;;;11.20;99.90;;;;;;5071664;28;19908;-58
2022/04/23 01:35:50;;;;;;;;;;;11.20;99.90;;;;;;5078345;28;19915;-58
2022/04/23 01:38:16;;;;;;;;;;;11.10;99.90;;;;;;5078255;28;19908;-58
2022/04/23 01:40:42;;;;;;;;;;;11.10;99.90;;;;;;5077161;28;19908;-55
2022/04/23 01:43:08;;;;;;;;;;;11.10;99.90;;;;;;5084452;28;19978;-55
2022/04/23 01:45:34;;;;;;;;;;;11.10;99.90;;;;;;5071206;28;20429;-56
2022/04/23 01:47:59;;;;;;;;;;;11.10;99.90;;;;;;5075590;28;19955;-56
2022/04/23 01:50:25;;;;;;;;;;;11.10;99.90;;;;;;5073278;28;19919;-58
2022/04/23 01:52:50;;;;;;;;;;;11.00;99.90;;;;;;5074212;28;19944;-58
2022/04/23 01:55:16;;;;;;;;;;;11.00;99.90;;;;;;5073588;28;19909;-58
2022/04/23 01:57:41;;;;;;;;;;;11.00;99.90;;;;;;5078764;28;20544;-58
2022/04/23 02:00:08;;;;;;;;;;;10.90;99.90;;;;;;5071579;28;19909;-58
2022/04/23 02:02:34;;;;;;;;;;;10.90;99.90;;;;;;5073128;28;19961;-57
2022/04/23 02:04:59;;;;;;;;;;;10.90;99.90;;;;;;5082760;28;20010;-56
2022/04/23 02:07:25;;;;;;;;;;;10.90;99.90;;;;;;5053542;28;19908;-55
2022/04/23 02:09:50;;;;;;;;;;;10.80;99.90;;;;;;5079671;28;19916;-59
2022/04/23 02:12:16;;;;;;;;;;;10.80;99.90;;;;;;5080445;28;19915;-58
2022/04/23 02:14:41;;;;;;;;;;;10.80;99.90;;;;;;5077346;22;19920;-51
2022/04/23 02:17:09;;;;;;;;;;;10.80;99.90;;;;;;5038278;28;21680;-53
2022/04/23 02:19:35;;;;;;;;;;;10.80;99.90;;;;;;5038199;28;19978;-50
2022/04/23 02:22:00;;;;;;;;;;;10.80;99.90;;;;;;5039532;28;20394;-51
2022/04/23 02:24:26;;;;;;;;;;;10.70;99.90;;;;;;5040981;28;19944;-50
2022/04/23 02:26:51;;;;;;;;;;;10.70;99.90;;;;;;5042102;28;19915;-53
2022/04/23 02:29:17;;;;;;;;;;;10.70;99.90;;;;;;5039174;28;19917;-54
2022/04/23 02:31:42;;;;;;;;;;;10.60;99.90;;;;;;5039624;28;19920;-52
2022/04/23 02:34:07;;;;;;;;;;;10.50;99.90;;;;;;5040058;28;19935;-53
2022/04/23 02:36:36;;;;;;;;;;;10.50;99.90;;;;;;5037737;28;19955;-50
2022/04/23 02:39:01;;;;;;;;;;;10.40;99.90;;;;;;5043614;28;19996;-48
2022/04/23 02:41:27;;;;;;;;;;;10.40;99.90;;;;;;5043392;28;20344;-50
2022/04/23 02:43:53;;;;;;;;;;;10.40;99.90;;;;;;5039144;28;19947;-52
2022/04/23 02:46:18;;;;;;;;;;;10.40;99.90;;;;;;5041729;28;20019;-53
2022/04/23 02:48:44;;;;;;;;;;;10.40;99.90;;;;;;5046547;28;20003;-50
2022/04/23 02:51:12;;;;;;;;;;;10.30;99.90;;;;;;5045725;28;19959;-54
2022/04/23 02:53:38;;;;;;;;;;;10.40;99.90;;;;;;5038024;28;19963;-50
2022/04/23 02:56:05;;;;;;;;;;;10.40;99.90;;;;;;5039929;28;19939;-52
2022/04/23 02:58:31;;;;;;;;;;;10.40;99.90;;;;;;5038041;28;19916;-50
2022/04/23 03:00:56;;;;;;;;;;;10.40;99.90;;;;;;5041356;28;19923;-50
2022/04/23 03:03:22;;;;;;;;;;;10.30;99.90;;;;;;5046622;28;20297;-52
2022/04/23 03:05:48;;;;;;;;;;;10.30;99.90;;;;;;5045804;28;20023;-49
2022/04/23 03:08:14;;;;;;;;;;;10.30;99.90;;;;;;5044623;28;19944;-49
2022/04/23 03:10:40;;;;;;;;;;;10.20;99.90;;;;;;5047293;28;19951;-54
2022/04/23 03:13:07;;;;;;;;;;;10.20;99.90;;;;;;5041558;28;19913;-50
2022/04/23 03:15:33;;;;;;;;;;;10.20;99.90;;;;;;5043104;28;19939;-52
2022/04/23 03:18:17;;;;;;;;;;;10.10;99.90;;;;;;5046195;28;20427;-51
2022/04/23 03:20:44;;;;;;;;;;;10.10;99.90;;;;;;5039265;28;19934;-55
2022/04/23 03:23:10;;;;;;;;;;;10.00;99.90;;;;;;5040655;28;19943;-53
2022/04/23 03:25:35;;;;;;;;;;;10.00;99.90;;;;;;5044293;28;19920;-52
2022/04/23 03:28:01;;;;;;;;;;;9.90;99.90;;;;;;5037271;28;19963;-50
2022/04/23 03:30:27;;;;;;;;;;;9.90;99.90;;;;;;5034783;28;19962;-56
2022/04/23 03:32:53;;;;;;;;;;;9.90;99.90;;;;;;5040659;28;19912;-51
2022/04/23 03:35:19;;;;;;;;;;;9.90;99.90;;;;;;5046672;28;19932;-49
2022/04/23 03:37:44;;;;;;;;;;;9.90;99.90;;;;;;5040210;28;19954;-49
2022/04/23 03:40:10;;;;;;;;;;;9.80;99.90;;;;;;5039579;28;19912;-51
2022/04/23 03:42:36;;;;;;;;;;;9.80;99.90;;;;;;5041837;28;20370;-52
2022/04/23 03:45:02;;;;;;;;;;;9.70;99.90;;;;;;5040102;28;19908;-50
2022/04/23 03:47:28;;;;;;;;;;;9.70;99.90;;;;;;5039757;28;19908;-49
2022/04/23 03:49:54;;;;;;;;;;;9.70;99.90;;;;;;5040264;28;19924;-49
2022/04/23 03:52:19;;;;;;;;;;;9.60;99.90;;;;;;5045631;28;19913;-52
2022/04/23 03:54:46;;;;;;;;;;;9.60;99.90;;;;;;5046534;28;19908;-49
2022/04/23 03:57:12;;;;;;;;;;;9.50;99.90;;;;;;5043649;28;19909;-51
2022/04/23 03:59:37;;;;;;;;;;;9.40;99.90;;;;;;5044827;28;19908;-54
2022/04/23 04:02:04;;;;;;;;;;;9.40;99.90;;;;;;5042844;28;19951;-53
2022/04/23 04:04:32;;;;;;;;;;;9.40;99.90;;;;;;5045395;28;20183;-52
2022/04/23 04:06:59;;;;;;;;;;;9.40;99.90;;;;;;5038541;28;19913;-53
2022/04/23 04:09:25;;;;;;;;;;;9.40;99.90;;;;;;5045343;28;19919;-50
2022/04/23 04:12:03;;;;;;;;;;;9.40;99.90;;;;;;5039878;28;19932;-50
2022/04/23 04:14:30;;;;;;;;;;;9.40;99.90;;;;;;5044314;28;20011;-50
2022/04/23 04:16:56;;;;;;;;;;;9.30;99.90;;;;;;5037677;28;19967;-54
2022/04/23 04:19:21;;;;;;;;;;;9.30;99.90;;;;;;5042048;28;19967;-54
2022/04/23 04:21:47;;;;;;;;;;;9.30;99.90;;;;;;5041681;28;20047;-51
2022/04/23 04:24:13;;;;;;;;;;;9.30;99.90;;;;;;5041163;28;20434;-53
2022/04/23 04:26:43;;;;;;;;;;;9.30;99.90;;;;;;5041187;28;19909;-52
2022/04/23 04:29:09;;;;;;;;;;;9.30;99.90;;;;;;5037279;28;20371;-54
2022/04/23 04:31:48;;;;;;;;;;;9.30;99.90;;;;;;5038642;28;19924;-56
2022/04/23 04:34:20;;;;;;;;;;;9.20;99.90;;;;;;5042547;28;19944;-50
2022/04/23 04:36:46;;;;;;;;;;;9.20;99.90;;;;;;5043272;28;19909;-52
2022/04/23 04:39:12;;;;;;;;;;;9.00;99.90;;;;;;5040232;28;20291;-54
2022/04/23 04:41:38;;;;;;;;;;;9.00;99.90;;;;;;5042503;28;19913;-51
2022/04/23 04:44:05;;;;;;;;;;;8.90;99.90;;;;;;5040201;28;19909;-54
2022/04/23 04:46:30;;;;;;;;;;;8.80;99.90;;;;;;5041096;28;19943;-50
2022/04/23 04:48:56;;;;;;;;;;;8.80;99.90;;;;;;5033527;28;19913;-52
2022/04/23 04:51:21;;;;;;;;;;;8.60;99.90;;;;;;5035861;28;19920;-51
2022/04/23 04:53:47;;;;;;;;;;;8.60;99.90;;;;;;5035491;28;19922;-52
2022/04/23 04:56:12;;;;;;;;;;;8.60;99.90;;;;;;5044518;28;19947;-53
2022/04/23 04:58:38;;;;;;;;;;;8.60;99.90;;;;;;5040976;28;19916;-52
2022/04/23 05:01:03;;;;;;;;;;;8.70;99.90;;;;;;5043441;28;19909;-49
2022/04/23 05:03:29;;;;;;;;;;;8.70;99.90;;;;;;5042745;28;19934;-55
2022/04/23 05:05:54;;;;;;;;;;;8.70;99.90;;;;;;5041353;28;19917;-56
2022/04/23 05:08:20;;;;;;;;;;;8.70;99.90;;;;;;5040872;28;19913;-55
2022/04/23 05:10:46;;;;;;;;;;;8.70;99.90;;;;;;5046706;28;19909;-53
2022/04/23 05:13:11;;;;;;;;;;;8.80;99.90;;;;;;5042428;28;19956;-52
2022/04/23 05:15:37;;;;;;;;;;;8.80;99.90;;;;;;5044649;28;19908;-51
2022/04/23 05:18:03;;;;;;;;;;;8.70;99.90;;;;;;5042314;28;20004;-54
2022/04/23 05:20:28;;;;;;;;;;;8.70;99.90;;;;;;5047828;28;19935;-52
2022/04/23 05:22:54;;;;;;;;;;;8.70;99.90;;;;;;5038536;28;19928;-54
2022/04/23 05:25:19;;;;;;;;;;;8.70;99.90;;;;;;5048774;28;20374;-53
2022/04/23 05:27:45;;;;;;;;;;;8.70;99.90;;;;;;5040385;28;20371;-52
2022/04/23 05:30:10;;;;;;;;;;;8.70;99.90;;;;;;5039824;28;19967;-54
2022/04/23 05:32:36;;;;;;;;;;;8.70;99.90;;;;;;5044010;28;20140;-51
2022/04/23 05:35:01;;;;;;;;;;;8.70;99.90;;;;;;5046973;28;19916;-50
2022/04/23 05:37:27;;;;;;;;;;;8.70;99.90;;;;;;5044597;28;20054;-49
2022/04/23 05:39:52;;;;;;;;;;;8.80;99.90;;;;;;5044597;28;19909;-50
2022/04/23 05:42:18;;;;;;;;;;;8.90;99.90;;;;;;5040951;28;20345;-53
2022/04/23 05:44:43;;;;;;;;;;;8.90;99.90;;;;;;5047213;28;20282;-50
2022/04/23 05:47:09;;;;;;;;;;;9.00;99.90;;;;;;5043364;28;19996;-52
2022/04/23 05:49:37;;;;;;;;;;;9.10;99.90;;;;;;5041829;28;20383;-55
2022/04/23 05:52:02;;;;;;;;;;;9.20;99.90;;;;;;5040677;28;19913;-55
2022/04/23 05:54:28;;;;;;;;;;;9.30;99.90;;;;;;5047939;28;20046;-56
2022/04/23 05:56:53;;;;;;;;;;;9.40;99.90;;;;;;5041948;28;19916;-54
2022/04/23 05:59:19;;;;;;;;;;;9.50;99.90;;;;;;5040032;28;19916;-58
2022/04/23 06:01:44;;;;;;;;;;;9.60;99.90;;;;;;5041639;28;20385;-53
2022/04/23 06:04:09;;;;;;;;;;;9.70;99.90;;;;;;5044888;28;19999;-56
2022/04/23 06:06:35;;;;;;;;;;;9.80;99.90;;;;;;5043982;28;20013;-55
2022/04/23 06:09:00;;;;;;;;;;;9.90;99.90;;;;;;5044373;28;19909;-57
2022/04/23 06:11:26;;;;;;;;;;;10.00;99.90;;;;;;5045932;28;19917;-50
2022/04/23 06:13:51;;;;;;;;;;;10.20;99.90;;;;;;5042845;28;19912;-53
2022/04/23 06:16:17;;;;;;;;;;;10.30;99.90;;;;;;5045519;28;19909;-58
2022/04/23 06:18:42;;;;;;;;;;;10.40;99.90;;;;;;5043935;28;19909;-51
2022/04/23 06:21:08;;;;;;;;;;;10.50;99.90;;;;;;5041031;28;20307;-54
2022/04/23 06:23:33;;;;;;;;;;;10.60;99.90;;;;;;5043405;28;20301;-54
2022/04/23 06:25:59;;;;;;;;;;;10.70;99.90;;;;;;5046625;28;20445;-52
2022/04/23 06:28:24;;;;;;;;;;;10.90;99.90;;;;;;5041897;28;20255;-50
2022/04/23 06:30:49;;;;;;;;;;;10.90;99.90;;;;;;5042294;28;19908;-56
2022/04/23 06:33:15;;;;;;;;;;;11.10;99.90;;;;;;5041132;28;19916;-54
2022/04/23 06:35:40;;;;;;;;;;;11.20;99.90;;;;;;5042647;28;19913;-50
2022/04/23 06:38:06;;;;;;;;;;;11.20;99.90;;;;;;5044932;28;20252;-53
2022/04/23 06:40:31;;;;;;;;;;;11.30;99.90;;;;;;5044147;28;20286;-50
2022/04/23 06:42:57;;;;;;;;;;;11.40;99.90;;;;;;5048451;28;20301;-51
2022/04/23 06:45:22;;;;;;;;;;;11.60;99.90;;;;;;5047443;28;19920;-53
2022/04/23 06:47:56;;;;;;;;;;;11.70;99.90;;;;;;5041552;28;19909;-50
2022/04/23 06:50:21;;;;;;;;;;;11.80;99.90;;;;;;5047658;28;19912;-50
2022/04/23 06:52:47;;;;;;;;;;;11.80;99.90;;;;;;5043931;28;19955;-53
2022/04/23 06:55:12;;;;;;;;;;;11.90;99.90;;;;;;5041895;28;19915;-50
2022/04/23 06:57:44;;;;;;;;;;;12.00;99.90;;;;;;5043718;28;19995;-50
2022/04/23 07:00:11;;;;;;;;;;;12.10;99.90;;;;;;5045580;28;20548;-52
2022/04/23 07:02:36;;;;;;;;;;;12.20;99.90;;;;;;5047654;28;19917;-50
2022/04/23 07:05:02;;;;;;;;;;;12.20;99.90;;;;;;5044275;28;19912;-51
2022/04/23 07:07:27;;;;;;;;;;;12.30;99.90;;;;;;5041847;28;19944;-49
2022/04/23 07:09:53;;;;;;;;;;;12.40;99.90;;;;;;5039014;28;19962;-49
2022/04/23 07:12:19;;;;;;;;;;;12.50;99.90;;;;;;5042388;28;19909;-52
2022/04/23 07:14:44;;;;;;;;;;;12.60;99.90;;;;;;5047090;28;19975;-53
2022/04/23 07:17:10;;;;;;;;;;;12.70;99.90;;;;;;5044991;28;19940;-53
2022/04/23 07:19:39;;;;;;;;;;;12.80;99.90;;;;;;5044972;28;19912;-51
2022/04/23 07:22:05;;;;;;;;;;;12.90;99.90;;;;;;5047038;28;20083;-55
2022/04/23 07:24:30;;;;;;;;;;;13.10;99.90;;;;;;5039539;28;19924;-52
2022/04/23 07:26:59;;;;;;;;;;;13.20;99.90;;;;;;5037934;28;19909;-51
2022/04/23 07:29:24;;;;;;;;;;;13.40;99.90;;;;;;5040796;28;19920;-52
2022/04/23 07:31:50;;;;;;;;;;;13.40;99.90;;;;;;5041059;28;20259;-52
2022/04/23 07:39:44;;;;;;;;;;;13.60;99.90;;;;;;5037624;28;19915;-55
2022/04/23 07:42:10;;;;;;;;;;;13.80;99.90;;;;;;5039181;28;19913;-55
2022/04/23 07:44:36;;;;;;;;;;;13.80;99.90;;;;;;5045247;28;19913;-49
2022/04/23 07:47:04;;;;;;;;;;;13.90;99.90;;;;;;5042027;28;19909;-50
2022/04/23 07:49:30;;;;;;;;;;;14.00;99.90;;;;;;5041822;28;19920;-52
2022/04/23 07:51:55;;;;;;;;;;;14.10;99.90;;;;;;5042848;28;19909;-53
2022/04/23 07:54:21;;;;;;;;;;;14.10;99.90;;;;;;5044459;28;19916;-54
2022/04/23 07:56:46;;;;;;;;;;;14.20;99.90;;;;;;5043134;28;19912;-53
2022/04/23 07:59:12;;;;;;;;;;;14.30;99.90;;;;;;5044319;28;19909;-52
2022/04/23 08:01:37;;;;;;;;;;;14.30;99.90;;;;;;5041491;28;19908;-51
2022/04/23 08:04:03;;;;;;;;;;;14.30;99.90;;;;;;5034496;28;19905;-55
2022/04/23 08:06:30;;;;;;;;;;;14.40;99.90;;;;;;5035480;28;20015;-56
2022/04/23 08:08:55;;;;;;;;;;;14.50;99.90;;;;;;5038872;28;19909;-53
2022/04/23 08:11:22;;;;;;;;;;;14.60;99.90;;;;;;5038855;28;19916;-51
2022/04/23 08:13:51;;;;;;;;;;;14.60;99.90;;;;;;5038072;28;19919;-52
2022/04/23 08:16:17;;;;;;;;;;;14.70;99.90;;;;;;5058968;22;19913;-53
2022/04/23 08:18:42;;;;;;;;;;;14.80;99.90;;;;;;5049017;28;19919;-52
2022/04/23 08:21:08;;;;;;;;;;;14.90;99.90;;;;;;5051580;28;19913;-53
2022/04/23 08:23:33;;;;;;;;;;;14.90;99.90;;;;;;5047107;28;20366;-55
2022/04/23 08:26:00;;;;;;;;;;;15.10;99.90;;;;;;5050207;28;19939;-55
2022/04/23 08:31:12;;;;;;;;;;;15.20;99.90;;;;;;5053010;28;19950;-52
2022/04/23 08:33:57;;;;;;;;;;;15.30;99.90;;;;;;5049943;28;19954;-51
2022/04/23 08:36:23;;;;;;;;;;;15.40;99.90;;;;;;5039026;28;19913;-59
2022/04/23 08:38:48;;;;;;;;;;;15.50;99.90;;;;;;5038594;28;19916;-54
2022/04/23 08:41:14;;;;;;;;;;;15.50;99.90;;;;;;5044578;28;19923;-56
2022/04/23 08:43:42;;;;;;;;;;;15.60;99.90;;;;;;5052593;28;19917;-56
2022/04/23 08:46:09;;;;;;;;;;;15.60;99.90;;;;;;5053734;28;19913;-58
2022/04/23 08:48:37;;;;;;;;;;;15.80;99.90;;;;;;5047390;28;19948;-59
2022/04/23 08:51:04;;;;;;;;;;;15.90;99.90;;;;;;5053701;28;19908;-57
2022/04/23 08:53:31;;;;;;;;;;;16.00;99.90;;;;;;5054796;28;19920;-51
2022/04/23 08:55:57;;;;;;;;;;;16.10;99.90;;;;;;5047618;28;20248;-50
2022/04/23 08:58:23;;;;;;;;;;;16.20;99.90;;;;;;5047077;28;20402;-54
2022/04/23 09:00:49;;;;;;;;;;;16.40;99.90;;;;;;5045560;28;19916;-54
2022/04/23 09:03:15;;;;;;;;;;;16.50;99.90;;;;;;5051662;28;20378;-56
2022/04/23 09:05:43;;;;;;;;;;;16.50;99.90;;;;;;5057514;28;19955;-51
2022/04/23 09:08:08;;;;;;;;;;;16.50;99.90;;;;;;5054812;28;19908;-55
2022/04/23 09:10:46;;;;;;;;;;;16.60;99.90;;;;;;5046768;28;19935;-59
2022/04/23 09:13:11;;;;;;;;;;;16.80;99.90;;;;;;5044491;28;19960;-54
2022/04/23 09:24:09;;;;;;;;;;;17.10;99.90;;;;;;5049003;28;19979;-56
2022/04/23 09:26:35;;;;;;;;;;;17.20;99.90;;;;;;5056789;28;19912;-57
2022/04/23 09:29:11;;;;;;;;;;;17.30;99.90;;;;;;5047366;28;20284;-56
2022/04/23 09:31:36;;;;;;;;;;;17.30;99.90;;;;;;5041256;28;19996;-51
2022/04/23 09:34:13;;;;;;;;;;;17.40;99.90;;;;;;5047617;28;20010;-59
2022/04/23 09:36:48;;;;;;;;;;;17.40;99.90;;;;;;5050372;28;19936;-52
2022/04/23 09:39:14;;;;;;;;;;;17.40;99.90;;;;;;5043473;28;19935;-55
2022/04/23 09:41:39;;;;;;;;;;;17.50;99.90;;;;;;5043712;28;20386;-52
2022/04/23 09:44:09;;;;;;;;;;;17.40;99.90;;;;;;5040146;28;20869;-53
2022/04/23 09:46:41;;;;;;;;;;;17.70;99.90;;;;;;5047635;28;20546;-55
2022/04/23 09:49:07;;;;;;;;;;;17.90;99.90;;;;;;5045368;28;19917;-56
2022/04/23 09:51:34;;;;;;;;;;;18.10;99.90;;;;;;5039249;28;19909;-60
2022/04/23 09:54:02;;;;;;;;;;;18.30;99.90;;;;;;5045453;28;19969;-54
2022/04/23 09:56:28;;;;;;;;;;;18.20;99.90;;;;;;5044123;28;19948;-54
2022/04/23 09:58:53;;;;;;;;;;;18.00;99.90;;;;;;5045629;28;20369;-56
2022/04/23 10:01:20;;;;;;;;;;;17.90;99.90;;;;;;5045075;28;19991;-58
2022/04/23 10:03:49;;;;;;;;;;;18.20;99.90;;;;;;5040199;28;19963;-56
2022/04/23 10:06:16;;;;;;;;;;;18.50;99.90;;;;;;5046738;28;20310;-55
2022/04/23 10:08:44;;;;;;;;;;;18.70;99.90;;;;;;5044877;28;19912;-55
2022/04/23 10:11:11;;;;;;;;;;;18.70;99.90;;;;;;5050083;28;19917;-57
2022/04/23 10:13:39;;;;;;;;;;;18.60;99.90;;;;;;5048681;28;19962;-53
2022/04/23 10:16:07;;;;;;;;;;;18.60;99.90;;;;;;5051323;28;19920;-53
2022/04/23 10:18:38;;;;;;;;;;;18.70;99.90;;;;;;5039966;28;20263;-56
2022/04/23 10:21:08;;;;;;;;;;;19.00;99.90;;;;;;5040013;28;22122;-50
2022/04/23 10:23:56;;;;;;;;;;;19.30;99.90;;;;;;5044972;28;19916;-52
2022/04/23 10:26:21;;;;;;;;;;;19.30;99.90;;;;;;5041946;28;19912;-55
2022/04/23 10:28:48;;;;;;;;;;;19.30;99.90;;;;;;5039804;28;19909;-55
2022/04/23 10:31:15;;;;;;;;;;;19.30;99.90;;;;;;5039849;28;20941;-55
2022/04/23 10:33:50;;;;;;;;;;;19.60;99.90;;;;;;5050927;28;19919;-53
2022/04/23 10:36:16;;;;;;;;;;;19.70;99.90;;;;;;5041476;28;19948;-53
2022/04/23 10:38:42;;;;;;;;;;;19.70;99.90;;;;;;5049084;28;19912;-53
2022/04/23 10:41:10;;;;;;;;;;;19.80;99.90;;;;;;5041423;28;19944;-59
2022/04/23 10:43:36;;;;;;;;;;;20.10;99.90;;;;;;5043448;28;20393;-53
2022/04/23 10:46:03;;;;;;;;;;;20.10;99.90;;;;;;5052402;28;19936;-52
2022/04/23 10:48:30;;;;;;;;;;;19.70;99.90;;;;;;5040087;28;20027;-56
2022/04/23 10:51:05;;;;;;;;;;;19.20;99.90;;;;;;5037092;28;19974;-52
2022/04/23 10:53:43;;;;;;;;;;;19.20;99.90;;;;;;5037881;28;20378;-59
2022/04/23 10:56:11;;;;;;;;;;;19.60;99.90;;;;;;5032404;28;19916;-55
2022/04/23 10:58:43;;;;;;;;;;;19.70;99.90;;;;;;5039502;28;20078;-54
2022/04/23 11:01:29;;;;;;;;;;;19.90;99.90;;;;;;5037731;28;19944;-53
2022/04/23 11:03:55;;;;;;;;;;;19.90;99.90;;;;;;5041969;28;19921;-58
2022/04/23 11:12:18;;;;;;;;;;;19.50;99.90;;;;;;5044503;28;19958;-56
2022/04/23 11:14:44;;;;;;;;;;;19.50;99.90;;;;;;5042537;28;20007;-52
2022/04/23 11:17:12;;;;;;;;;;;19.40;99.90;;;;;;5039301;28;19999;-54
2022/04/23 11:19:41;;;;;;;;;;;19.80;99.90;;;;;;5038879;28;19909;-55
2022/04/23 11:22:09;;;;;;;;;;;20.10;99.90;;;;;;5040307;28;19966;-52
2022/04/23 11:24:34;;;;;;;;;;;20.30;99.90;;;;;;5041658;28;19955;-59
2022/04/23 11:27:00;;;;;;;;;;;20.20;99.90;;;;;;5044623;28;19921;-56
2022/04/23 11:29:27;;;;;;;;;;;19.90;99.90;;;;;;5042478;28;19942;-53
2022/04/23 11:31:54;;;;;;;;;;;19.50;99.90;;;;;;5041221;28;19913;-58
2022/04/23 11:34:19;;;;;;;;;;;19.50;99.90;;;;;;5037770;28;19962;-57
2022/04/23 11:36:45;;;;;;;;;;;19.70;99.90;;;;;;5048028;28;19916;-54
2022/04/23 11:39:12;;;;;;;;;;;20.00;99.90;;;;;;5041184;28;19924;-55
2022/04/23 11:41:39;;;;;;;;;;;20.10;99.90;;;;;;5043522;28;20382;-55
2022/04/23 11:44:17;;;;;;;;;;;19.90;99.90;;;;;;5041200;28;19954;-53
2022/04/23 11:46:43;;;;;;;;;;;20.20;99.90;;;;;;5048200;28;20317;-53
2022/04/23 11:49:09;;;;;;;;;;;20.10;99.90;;;;;;5048493;28;20003;-54
2022/04/23 11:51:39;;;;;;;;;;;19.70;99.90;;;;;;5042557;28;19996;-56
2022/04/23 11:54:04;;;;;;;;;;;19.50;99.90;;;;;;5045123;28;19917;-58
2022/04/23 11:56:32;;;;;;;;;;;19.90;99.90;;;;;;5042269;28;20378;-58
2022/04/23 11:58:59;;;;;;;;;;;19.90;99.90;;;;;;5047375;28;19912;-50
2022/04/23 12:01:25;;;;;;;;;;;19.50;99.90;;;;;;5048969;28;20003;-56
2022/04/23 12:03:52;;;;;;;;;;;19.70;99.90;;;;;;5053045;28;19999;-54
2022/04/23 12:06:17;;;;;;;;;;;20.10;99.90;;;;;;5049439;28;20370;-50
2022/04/23 12:08:43;;;;;;;;;;;20.10;99.90;;;;;;5044912;28;19939;-54
2022/04/23 12:11:21;;;;;;;;;;;20.40;99.90;;;;;;5046889;28;20383;-51
2022/04/23 12:13:48;;;;;;;;;;;20.40;99.90;;;;;;5046680;28;19962;-50
2022/04/23 12:16:49;;;;;;;;;;;20.50;99.90;;;;;;5047598;28;20267;-55
2022/04/23 12:19:16;;;;;;;;;;;20.90;99.90;;;;;;5044976;28;19913;-51
2022/04/23 12:21:54;;;;;;;;;;;20.50;99.90;;;;;;5053245;28;19918;-54
2022/04/23 12:24:32;;;;;;;;;;;20.50;99.90;;;;;;5052303;28;20002;-54
2022/04/23 12:27:02;;;;;;;;;;;20.70;99.90;;;;;;5044497;28;19909;-56
2022/04/23 12:40:44;;;;;;;;;;;20.50;99.90;;;;;;5054876;28;19969;-55
2022/04/23 12:43:20;;;;;;;;;;;20.20;99.90;;;;;;5051097;28;20289;-54
2022/04/23 12:45:45;;;;;;;;;;;19.80;99.90;;;;;;5056486;28;19909;-53
2022/04/23 12:48:12;;;;;;;;;;;19.80;99.90;;;;;;5050269;28;20423;-56
2022/04/23 12:50:38;;;;;;;;;;;20.40;99.90;;;;;;5049433;28;19917;-52
2022/04/23 12:53:04;;;;;;;;;;;20.80;99.90;;;;;;5053676;28;19912;-54
2022/04/23 12:55:36;;;;;;;;;;;20.80;99.90;;;;;;5052122;28;19917;-51
2022/04/23 12:58:01;;;;;;;;;;;20.00;99.90;;;;;;5051802;28;19915;-51
2022/04/23 13:00:28;;;;;;;;;;;20.00;99.90;;;;;;5049792;28;19916;-57
2022/04/23 13:02:58;;;;;;;;;;;20.10;99.90;;;;;;5048411;28;19916;-51
2022/04/23 13:05:23;;;;;;;;;;;19.70;99.90;;;;;;5046757;28;19961;-50
2022/04/23 13:10:33;;;;;;;;;;;20.00;99.90;;;;;;5045621;28;19978;-54
2022/04/23 13:12:59;;;;;;;;;;;20.10;99.90;;;;;;5047085;28;20333;-54
2022/04/23 13:15:25;;;;;;;;;;;20.00;99.90;;;;;;5048029;28;19932;-52
2022/04/23 13:17:51;;;;;;;;;;;19.90;99.90;;;;;;5039837;28;19970;-56
2022/04/23 13:20:17;;;;;;;;;;;19.60;99.90;;;;;;5043806;28;20666;-52
2022/04/23 13:22:46;;;;;;;;;;;19.90;99.90;;;;;;5045889;28;19923;-53
2022/04/23 13:25:13;;;;;;;;;;;20.00;99.90;;;;;;5051392;28;20386;-56
2022/04/23 13:27:39;;;;;;;;;;;19.70;99.90;;;;;;5040209;28;19916;-52
2022/04/23 13:30:04;;;;;;;;;;;19.60;99.90;;;;;;5041661;28;19935;-54
2022/04/23 13:32:32;;;;;;;;;;;19.70;99.90;;;;;;5043419;28;19916;-57
2022/04/23 13:34:58;;;;;;;;;;;19.90;99.90;;;;;;5041502;28;19944;-56
2022/04/23 13:37:23;;;;;;;;;;;20.20;99.90;;;;;;5041738;28;19966;-54
2022/04/23 13:39:49;;;;;;;;;;;21.00;99.90;;;;;;5041428;28;20529;-55
2022/04/23 13:42:14;;;;;;;;;;;21.30;99.90;;;;;;5046109;28;19947;-57
2022/04/23 13:44:40;;;;;;;;;;;21.10;99.90;;;;;;5053924;28;19917;-54
2022/04/23 13:47:06;;;;;;;;;;;21.30;99.90;;;;;;5043282;28;19912;-52
2022/04/23 13:49:31;;;;;;;;;;;21.30;99.90;;;;;;5043065;28;20290;-52
2022/04/23 13:51:57;;;;;;;;;;;21.40;99.90;;;;;;5045153;28;19908;-56
2022/04/23 13:54:22;;;;;;;;;;;21.20;99.90;;;;;;5042047;28;19917;-52
2022/04/23 13:56:51;;;;;;;;;;;21.20;99.90;;;;;;5043073;28;19916;-52
2022/04/23 13:59:16;;;;;;;;;;;20.40;99.90;;;;;;5044416;28;19948;-51
2022/04/23 14:10:04;;;;;;;;;;;20.20;99.90;;;;;;5044422;28;19985;-52
2022/04/23 14:10:05;;;;;;;;;;;20.00;99.90;;;;;;5043920;28;19924;-53
2022/04/23 14:12:30;;;;;;;;;;;20.40;99.90;;;;;;5042693;28;19921;-52
2022/04/23 14:14:56;;;;;;;;;;;20.30;99.90;;;;;;5044826;28;19979;-53
2022/04/23 14:17:21;;;;;;;;;;;20.20;99.90;;;;;;5065890;22;19908;-56
2022/04/23 14:19:47;;;;;;;;;;;20.40;99.90;;;;;;5057812;28;20582;-55
2022/04/23 14:22:12;;;;;;;;;;;20.70;99.90;;;;;;5056332;28;19916;-57
2022/04/23 14:24:38;;;;;;;;;;;20.30;99.90;;;;;;5060521;28;19985;-55
2022/04/23 14:27:04;;;;;;;;;;;19.80;99.90;;;;;;5056382;28;19916;-58
2022/04/23 14:29:29;;;;;;;;;;;19.70;99.90;;;;;;5042053;28;19909;-57
2022/04/23 14:31:55;;;;;;;;;;;19.30;99.90;;;;;;5042925;28;19950;-56
2022/04/23 14:34:20;;;;;;;;;;;19.10;99.90;;;;;;5041544;28;19908;-57
2022/04/23 14:36:46;;;;;;;;;;;19.10;99.90;;;;;;5047068;28;20007;-57
2022/04/23 14:39:11;;;;;;;;;;;19.10;99.90;;;;;;5048021;28;19966;-58
2022/04/23 14:41:37;;;;;;;;;;;18.90;99.90;;;;;;5043817;28;20012;-58
2022/04/23 14:44:02;;;;;;;;;;;18.90;99.90;;;;;;5045578;28;20318;-59
2022/04/23 14:46:28;;;;;;;;;;;18.80;99.90;;;;;;5042097;28;20009;-57
2022/04/23 14:48:54;;;;;;;;;;;18.70;99.90;;;;;;5043592;28;19920;-57
2022/04/23 14:54:04;;;;;;;;;;;18.70;99.90;;;;;;5038938;28;19955;-57
2022/04/23 14:56:29;;;;;;;;;;;18.60;99.90;;;;;;5044202;28;19913;-57
2022/04/23 14:58:55;;;;;;;;;;;18.60;99.90;;;;;;5045314;28;20033;-57
2022/04/23 15:01:21;;;;;;;;;;;18.80;99.90;;;;;;5049084;28;19913;-56